sensor_id;sensor_type;location;lat;lon;timestamp;temperature;humidity
27226;DHT22;14732;51.074;3.788;2022-09-12T00:00:45;17.10;99.90
27226;DHT22;14732;51.074;3.788;2022-09-12T00:03:10;17.00;99.90
27226;DHT22;14732;51.074;3.788;2022-09-12T00:05:41;16.90;99.90
27226;DHT22;14732;51.074;3.788;2022-09-12T00:08:07;16.90;99.90
27226;DHT22;14732;51.074;3.788;2022-09-12T00:10:35;16.80;99.90
27226;DHT22;14732;51.074;3.788;2022-09-12T00:13:01;16.80;99.90
27226;DHT22;14732;51.074;3.788;2022-09-12T00:15:26;16.80;99.90
27226;DHT22;14732;51.074;3.788;2022-09-12T00:17:52;16.90;99.90
27226;DHT22;14732;51.074;3.788;2022-09-12T00:20:18;16.90;99.90
27226;DHT22;14732;51.074;3.788;2022-09-12T00:22:43;16.80;99.90
27226;DHT22;14732;51.074;3.788;2022-09-12T00:25:09;16.90;99.90
27226;DHT22;14732;51.074;3.788;2022-09-12T00:27:35;16.80;99.90
27226;DHT22;14732;51.074;3.788;2022-09-12T00:30:01;16.70;99.90
27226;DHT22;14732;51.074;3.788;2022-09-12T00:32:26;16.70;99.90
27226;DHT22;14732;51.074;3.788;2022-09-12T00:34:52;16.70;99.90
27226;DHT22;14732;51.074;3.788;2022-09-12T00:37:17;16.70;99.90
27226;DHT22;14732;51.074;3.788;2022-09-12T00:39:43;16.70;99.90
27226;DHT22;14732;51.074;3.788;2022-09-12T00:42:10;16.60;99.90
27226;DHT22;14732;51.074;3.788;2022-09-12T00:47:05;16.60;99.90
27226;DHT22;14732;51.074;3.788;2022-09-12T00:52:18;16.60;99.90
27226;DHT22;14732;51.074;3.788;2022-09-12T00:57:28;16.50;99.90
27226;DHT22;14732;51.074;3.788;2022-09-12T01:00:00;16.60;99.90
27226;DHT22;14732;51.074;3.788;2022-09-12T01:02:28;16.60;99.90
27226;DHT22;14732;51.074;3.788;2022-09-12T01:04:54;16.60;99.90
27226;DHT22;14732;51.074;3.788;2022-09-12T01:07:20;16.50;99.90
27226;DHT22;14732;51.074;3.788;2022-09-12T01:09:47;16.50;99.90
27226;DHT22;14732;51.074;3.788;2022-09-12T01:12:14;16.40;99.90
27226;DHT22;14732;51.074;3.788;2022-09-12T01:14:40;16.50;99.90
27226;DHT22;14732;51.074;3.788;2022-09-12T01:17:06;16.50;99.90
27226;DHT22;14732;51.074;3.788;2022-09-12T01:25:22;16.40;99.90
27226;DHT22;14732;51.074;3.788;2022-09-12T01:30:46;16.40;99.90
27226;DHT22;14732;51.074;3.788;2022-09-12T01:33:45;16.30;99.90
27226;DHT22;14732;51.074;3.788;2022-09-12T01:38:55;16.30;99.90
27226;DHT22;14732;51.074;3.788;2022-09-12T01:41:45;16.30;99.90
27226;DHT22;14732;51.074;3.788;2022-09-12T01:47:10;16.20;99.90
27226;DHT22;14732;51.074;3.788;2022-09-12T01:49:47;16.10;99.90
27226;DHT22;14732;51.074;3.788;2022-09-12T01:52:27;16.10;99.90
27226;DHT22;14732;51.074;3.788;2022-09-12T01:57:42;16.20;99.90
27226;DHT22;14732;51.074;3.788;2022-09-12T02:00:10;16.10;99.90
27226;DHT22;14732;51.074;3.788;2022-09-12T02:02:48;15.90;99.90
27226;DHT22;14732;51.074;3.788;2022-09-12T02:05:38;15.90;99.90
27226;DHT22;14732;51.074;3.788;2022-09-12T02:08:12;15.70;99.90
27226;DHT22;14732;51.074;3.788;2022-09-12T02:13:31;15.80;99.90
27226;DHT22;14732;51.074;3.788;2022-09-12T02:16:14;15.90;99.90
27226;DHT22;14732;51.074;3.788;2022-09-12T02:18:46;15.90;99.90
27226;DHT22;14732;51.074;3.788;2022-09-12T02:21:16;16.00;99.90
27226;DHT22;14732;51.074;3.788;2022-09-12T02:23:47;16.00;99.90
27226;DHT22;14732;51.074;3.788;2022-09-12T02:26:29;16.00;99.90
27226;DHT22;14732;51.074;3.788;2022-09-12T02:28:56;16.00;99.90
27226;DHT22;14732;51.074;3.788;2022-09-12T02:31:32;16.00;99.90
27226;DHT22;14732;51.074;3.788;2022-09-12T02:36:47;15.80;99.90
27226;DHT22;14732;51.074;3.788;2022-09-12T02:39:15;15.80;99.90
27226;DHT22;14732;51.074;3.788;2022-09-12T02:41:46;15.80;99.90
27226;DHT22;14732;51.074;3.788;2022-09-12T02:44:12;15.80;99.90
27226;DHT22;14732;51.074;3.788;2022-09-12T02:46:41;15.80;99.90
27226;DHT22;14732;51.074;3.788;2022-09-12T02:49:08;15.80;99.90
27226;DHT22;14732;51.074;3.788;2022-09-12T02:51:34;15.80;99.90
27226;DHT22;14732;51.074;3.788;2022-09-12T02:54:00;15.80;99.90
27226;DHT22;14732;51.074;3.788;2022-09-12T02:56:28;15.70;99.90
27226;DHT22;14732;51.074;3.788;2022-09-12T02:58:58;15.80;99.90
27226;DHT22;14732;51.074;3.788;2022-09-12T03:12:45;15.70;99.90
27226;DHT22;14732;51.074;3.788;2022-09-12T03:18:19;15.50;99.90
27226;DHT22;14732;51.074;3.788;2022-09-12T03:21:11;15.60;99.90
27226;DHT22;14732;51.074;3.788;2022-09-12T03:23:50;15.60;99.90
27226;DHT22;14732;51.074;3.788;2022-09-12T03:26:35;15.50;99.90
27226;DHT22;14732;51.074;3.788;2022-09-12T03:29:03;15.50;99.90
27226;DHT22;14732;51.074;3.788;2022-09-12T03:31:30;15.50;99.90
27226;DHT22;14732;51.074;3.788;2022-09-12T03:33:57;15.50;99.90
27226;DHT22;14732;51.074;3.788;2022-09-12T03:36:26;15.50;99.90
27226;DHT22;14732;51.074;3.788;2022-09-12T03:38:52;15.50;99.90
27226;DHT22;14732;51.074;3.788;2022-09-12T03:41:18;15.50;99.90
27226;DHT22;14732;51.074;3.788;2022-09-12T03:43:45;15.60;99.90
27226;DHT22;14732;51.074;3.788;2022-09-12T03:46:10;15.60;99.90
27226;DHT22;14732;51.074;3.788;2022-09-12T03:48:37;15.60;99.90
27226;DHT22;14732;51.074;3.788;2022-09-12T03:51:05;15.60;99.90
27226;DHT22;14732;51.074;3.788;2022-09-12T03:53:30;15.50;99.90
27226;DHT22;14732;51.074;3.788;2022-09-12T03:55:57;15.50;99.90
27226;DHT22;14732;51.074;3.788;2022-09-12T03:58:23;15.50;99.90
27226;DHT22;14732;51.074;3.788;2022-09-12T04:00:48;15.50;99.90
27226;DHT22;14732;51.074;3.788;2022-09-12T04:03:14;15.50;99.90
27226;DHT22;14732;51.074;3.788;2022-09-12T04:05:40;15.50;99.90
27226;DHT22;14732;51.074;3.788;2022-09-12T04:08:05;15.50;99.90
27226;DHT22;14732;51.074;3.788;2022-09-12T04:10:31;15.50;99.90
27226;DHT22;14732;51.074;3.788;2022-09-12T04:12:57;15.50;99.90
27226;DHT22;14732;51.074;3.788;2022-09-12T04:15:23;15.50;99.90
27226;DHT22;14732;51.074;3.788;2022-09-12T04:17:48;15.50;99.90
27226;DHT22;14732;51.074;3.788;2022-09-12T04:20:14;15.50;99.90
27226;DHT22;14732;51.074;3.788;2022-09-12T04:22:40;15.40;99.90
27226;DHT22;14732;51.074;3.788;2022-09-12T04:25:06;15.50;99.90
27226;DHT22;14732;51.074;3.788;2022-09-12T04:27:32;15.40;99.90
27226;DHT22;14732;51.074;3.788;2022-09-12T04:29:59;15.40;99.90
27226;DHT22;14732;51.074;3.788;2022-09-12T04:32:25;15.40;99.90
27226;DHT22;14732;51.074;3.788;2022-09-12T04:34:51;15.30;99.90
27226;DHT22;14732;51.074;3.788;2022-09-12T04:37:17;15.30;99.90
27226;DHT22;14732;51.074;3.788;2022-09-12T04:39:43;15.30;99.90
27226;DHT22;14732;51.074;3.788;2022-09-12T04:42:08;15.20;99.90
27226;DHT22;14732;51.074;3.788;2022-09-12T04:44:34;15.20;99.90
27226;DHT22;14732;51.074;3.788;2022-09-12T04:47:00;15.30;99.90
27226;DHT22;14732;51.074;3.788;2022-09-12T04:49:25;15.30;99.90
27226;DHT22;14732;51.074;3.788;2022-09-12T04:51:52;15.20;99.90
27226;DHT22;14732;51.074;3.788;2022-09-12T04:54:19;15.10;99.90
27226;DHT22;14732;51.074;3.788;2022-09-12T04:56:47;15.20;99.90
27226;DHT22;14732;51.074;3.788;2022-09-12T04:59:15;15.10;99.90
27226;DHT22;14732;51.074;3.788;2022-09-12T05:01:41;15.10;99.90
27226;DHT22;14732;51.074;3.788;2022-09-12T05:04:09;15.10;99.90
27226;DHT22;14732;51.074;3.788;2022-09-12T05:06:36;15.10;99.90
27226;DHT22;14732;51.074;3.788;2022-09-12T05:09:03;15.10;99.90
27226;DHT22;14732;51.074;3.788;2022-09-12T05:11:34;15.10;99.90
27226;DHT22;14732;51.074;3.788;2022-09-12T05:14:01;15.00;99.90
27226;DHT22;14732;51.074;3.788;2022-09-12T05:16:27;15.10;99.90
27226;DHT22;14732;51.074;3.788;2022-09-12T05:18:54;15.00;99.90
27226;DHT22;14732;51.074;3.788;2022-09-12T05:21:21;15.00;99.90
27226;DHT22;14732;51.074;3.788;2022-09-12T05:23:54;15.00;99.90
27226;DHT22;14732;51.074;3.788;2022-09-12T05:26:21;14.90;99.90
27226;DHT22;14732;51.074;3.788;2022-09-12T05:28:48;14.80;99.90
27226;DHT22;14732;51.074;3.788;2022-09-12T05:31:17;14.90;99.90
27226;DHT22;14732;51.074;3.788;2022-09-12T05:33:45;14.90;99.90
27226;DHT22;14732;51.074;3.788;2022-09-12T05:36:15;14.90;99.90
27226;DHT22;14732;51.074;3.788;2022-09-12T05:38:42;14.90;99.90
27226;DHT22;14732;51.074;3.788;2022-09-12T05:41:10;15.00;99.90
27226;DHT22;14732;51.074;3.788;2022-09-12T05:43:37;15.00;99.90
27226;DHT22;14732;51.074;3.788;2022-09-12T05:46:05;15.00;99.90
27226;DHT22;14732;51.074;3.788;2022-09-12T05:48:33;15.00;99.90
27226;DHT22;14732;51.074;3.788;2022-09-12T05:51:05;15.00;99.90
27226;DHT22;14732;51.074;3.788;2022-09-12T05:53:32;15.00;99.90
27226;DHT22;14732;51.074;3.788;2022-09-12T05:56:07;15.00;99.90
27226;DHT22;14732;51.074;3.788;2022-09-12T05:58:34;15.10;99.90
27226;DHT22;14732;51.074;3.788;2022-09-12T06:01:14;15.20;99.90
27226;DHT22;14732;51.074;3.788;2022-09-12T06:03:45;15.20;99.90
27226;DHT22;14732;51.074;3.788;2022-09-12T06:06:12;15.40;99.90
27226;DHT22;14732;51.074;3.788;2022-09-12T06:08:40;15.40;99.90
27226;DHT22;14732;51.074;3.788;2022-09-12T06:11:08;15.50;99.90
27226;DHT22;14732;51.074;3.788;2022-09-12T06:13:35;15.60;99.90
27226;DHT22;14732;51.074;3.788;2022-09-12T06:18:33;15.90;99.90
27226;DHT22;14732;51.074;3.788;2022-09-12T06:21:10;16.00;99.90
27226;DHT22;14732;51.074;3.788;2022-09-12T06:23:38;16.10;99.90
27226;DHT22;14732;51.074;3.788;2022-09-12T06:26:05;16.20;99.90
27226;DHT22;14732;51.074;3.788;2022-09-12T06:28:31;16.30;99.90
27226;DHT22;14732;51.074;3.788;2022-09-12T06:31:13;16.40;99.90
27226;DHT22;14732;51.074;3.788;2022-09-12T06:33:41;16.40;99.90
27226;DHT22;14732;51.074;3.788;2022-09-12T06:36:09;16.40;99.90
27226;DHT22;14732;51.074;3.788;2022-09-12T06:38:35;16.50;99.90
27226;DHT22;14732;51.074;3.788;2022-09-12T06:41:05;16.70;99.90
27226;DHT22;14732;51.074;3.788;2022-09-12T06:43:32;16.80;99.90
27226;DHT22;14732;51.074;3.788;2022-09-12T06:45:58;16.70;99.90
27226;DHT22;14732;51.074;3.788;2022-09-12T06:48:24;16.70;99.90
27226;DHT22;14732;51.074;3.788;2022-09-12T06:51:00;16.80;99.90
27226;DHT22;14732;51.074;3.788;2022-09-12T06:53:28;16.80;99.90
27226;DHT22;14732;51.074;3.788;2022-09-12T06:55:56;17.00;99.90
27226;DHT22;14732;51.074;3.788;2022-09-12T06:58:22;17.30;99.90
27226;DHT22;14732;51.074;3.788;2022-09-12T07:00:48;17.60;99.90
27226;DHT22;14732;51.074;3.788;2022-09-12T07:03:14;17.90;99.90
27226;DHT22;14732;51.074;3.788;2022-09-12T07:05:40;18.20;99.90
27226;DHT22;14732;51.074;3.788;2022-09-12T07:08:05;18.20;99.90
27226;DHT22;14732;51.074;3.788;2022-09-12T07:10:31;18.00;99.90
27226;DHT22;14732;51.074;3.788;2022-09-12T07:12:56;18.00;99.90
27226;DHT22;14732;51.074;3.788;2022-09-12T07:15:23;17.90;99.90
27226;DHT22;14732;51.074;3.788;2022-09-12T07:17:49;18.20;99.90
27226;DHT22;14732;51.074;3.788;2022-09-12T07:20:14;18.30;99.90
27226;DHT22;14732;51.074;3.788;2022-09-12T07:22:40;18.40;99.90
27226;DHT22;14732;51.074;3.788;2022-09-12T07:25:06;18.50;99.90
27226;DHT22;14732;51.074;3.788;2022-09-12T07:27:32;18.50;99.90
27226;DHT22;14732;51.074;3.788;2022-09-12T07:29:57;18.80;99.90
27226;DHT22;14732;51.074;3.788;2022-09-12T07:32:23;19.10;99.90
27226;DHT22;14732;51.074;3.788;2022-09-12T07:34:49;19.40;99.90
27226;DHT22;14732;51.074;3.788;2022-09-12T07:37:14;19.50;99.90
27226;DHT22;14732;51.074;3.788;2022-09-12T07:39:40;19.60;99.90
27226;DHT22;14732;51.074;3.788;2022-09-12T07:42:06;19.60;99.90
27226;DHT22;14732;51.074;3.788;2022-09-12T07:44:32;19.30;99.90
27226;DHT22;14732;51.074;3.788;2022-09-12T07:46:57;19.30;99.90
27226;DHT22;14732;51.074;3.788;2022-09-12T07:49:23;19.60;99.90
27226;DHT22;14732;51.074;3.788;2022-09-12T07:51:49;20.00;99.90
27226;DHT22;14732;51.074;3.788;2022-09-12T07:54:14;20.10;99.90
27226;DHT22;14732;51.074;3.788;2022-09-12T07:56:40;19.70;99.90
27226;DHT22;14732;51.074;3.788;2022-09-12T07:59:07;19.80;99.90
27226;DHT22;14732;51.074;3.788;2022-09-12T08:01:33;19.80;99.90
27226;DHT22;14732;51.074;3.788;2022-09-12T08:10:42;20.30;99.90
27226;DHT22;14732;51.074;3.788;2022-09-12T08:13:08;20.60;99.90
27226;DHT22;14732;51.074;3.788;2022-09-12T08:15:34;20.70;99.90
27226;DHT22;14732;51.074;3.788;2022-09-12T08:17:59;20.40;99.90
27226;DHT22;14732;51.074;3.788;2022-09-12T08:20:26;20.40;99.90
27226;DHT22;14732;51.074;3.788;2022-09-12T08:22:51;20.70;99.90
27226;DHT22;14732;51.074;3.788;2022-09-12T08:25:17;20.20;99.90
27226;DHT22;14732;51.074;3.788;2022-09-12T08:27:42;20.20;99.90
27226;DHT22;14732;51.074;3.788;2022-09-12T08:30:08;20.40;99.90
27226;DHT22;14732;51.074;3.788;2022-09-12T08:32:34;20.80;99.90
27226;DHT22;14732;51.074;3.788;2022-09-12T08:35:00;21.00;99.90
27226;DHT22;14732;51.074;3.788;2022-09-12T08:37:29;21.00;99.90
27226;DHT22;14732;51.074;3.788;2022-09-12T08:39:55;21.00;99.90
27226;DHT22;14732;51.074;3.788;2022-09-12T08:42:38;21.10;99.90
27226;DHT22;14732;51.074;3.788;2022-09-12T08:45:31;21.40;99.90
27226;DHT22;14732;51.074;3.788;2022-09-12T08:47:58;21.60;99.90
27226;DHT22;14732;51.074;3.788;2022-09-12T08:50:27;21.90;99.90
27226;DHT22;14732;51.074;3.788;2022-09-12T08:53:11;21.60;99.90
27226;DHT22;14732;51.074;3.788;2022-09-12T08:55:42;21.40;99.90
27226;DHT22;14732;51.074;3.788;2022-09-12T08:58:14;21.40;99.90
27226;DHT22;14732;51.074;3.788;2022-09-12T09:01:02;21.50;99.90
27226;DHT22;14732;51.074;3.788;2022-09-12T09:04:00;21.80;99.90
27226;DHT22;14732;51.074;3.788;2022-09-12T09:17:40;29.70;99.90
27226;DHT22;14732;51.074;3.788;2022-09-12T09:28:19;35.10;94.30
27226;DHT22;14732;51.074;3.788;2022-09-12T09:30:47;34.20;94.50
27226;DHT22;14732;51.074;3.788;2022-09-12T09:33:22;32.30;95.20
27226;DHT22;14732;51.074;3.788;2022-09-12T09:38:24;30.20;98.40
27226;DHT22;14732;51.074;3.788;2022-09-12T09:43:46;28.50;99.90
27226;DHT22;14732;51.074;3.788;2022-09-12T09:46:11;27.20;99.90
27226;DHT22;14732;51.074;3.788;2022-09-12T09:48:44;26.50;99.90
27226;DHT22;14732;51.074;3.788;2022-09-12T09:51:13;26.20;99.90
27226;DHT22;14732;51.074;3.788;2022-09-12T09:53:53;25.90;99.90
27226;DHT22;14732;51.074;3.788;2022-09-12T09:56:32;25.80;99.90
27226;DHT22;14732;51.074;3.788;2022-09-12T09:59:18;25.10;99.90
27226;DHT22;14732;51.074;3.788;2022-09-12T10:02:00;25.00;99.90
27226;DHT22;14732;51.074;3.788;2022-09-12T10:04:38;25.00;99.90
27226;DHT22;14732;51.074;3.788;2022-09-12T10:07:04;24.50;99.90
27226;DHT22;14732;51.074;3.788;2022-09-12T10:09:34;24.50;99.90
27226;DHT22;14732;51.074;3.788;2022-09-12T10:12:33;24.70;99.90
27226;DHT22;14732;51.074;3.788;2022-09-12T10:15:12;24.40;99.90
27226;DHT22;14732;51.074;3.788;2022-09-12T10:17:44;24.30;99.90
27226;DHT22;14732;51.074;3.788;2022-09-12T10:22:55;24.50;99.90
27226;DHT22;14732;51.074;3.788;2022-09-12T10:25:22;24.60;99.90
27226;DHT22;14732;51.074;3.788;2022-09-12T10:27:56;24.40;99.90
27226;DHT22;14732;51.074;3.788;2022-09-12T10:30:23;24.00;99.90
27226;DHT22;14732;51.074;3.788;2022-09-12T10:32:53;24.00;99.90
27226;DHT22;14732;51.074;3.788;2022-09-12T10:38:00;24.40;99.90
27226;DHT22;14732;51.074;3.788;2022-09-12T10:40:35;24.70;99.90
27226;DHT22;14732;51.074;3.788;2022-09-12T10:43:14;24.90;99.90
27226;DHT22;14732;51.074;3.788;2022-09-12T10:45:41;24.90;99.90
27226;DHT22;14732;51.074;3.788;2022-09-12T10:48:29;25.10;99.90
27226;DHT22;14732;51.074;3.788;2022-09-12T10:50:56;25.30;99.90
27226;DHT22;14732;51.074;3.788;2022-09-12T10:53:26;25.10;99.90
27226;DHT22;14732;51.074;3.788;2022-09-12T11:01:18;25.00;99.90
27226;DHT22;14732;51.074;3.788;2022-09-12T11:14:44;25.00;99.90
27226;DHT22;14732;51.074;3.788;2022-09-12T11:17:16;24.90;99.90
27226;DHT22;14732;51.074;3.788;2022-09-12T11:20:16;25.20;99.90
27226;DHT22;14732;51.074;3.788;2022-09-12T11:23:31;25.50;99.90
27226;DHT22;14732;51.074;3.788;2022-09-12T11:40:39;25.70;99.90
27226;DHT22;14732;51.074;3.788;2022-09-12T11:49:20;25.80;99.90
27226;DHT22;14732;51.074;3.788;2022-09-12T11:57:25;24.90;99.90
27226;DHT22;14732;51.074;3.788;2022-09-12T11:59:57;25.10;99.90
27226;DHT22;14732;51.074;3.788;2022-09-12T12:02:26;25.30;99.90
27226;DHT22;14732;51.074;3.788;2022-09-12T12:05:01;25.40;99.90
27226;DHT22;14732;51.074;3.788;2022-09-12T12:07:38;25.60;99.90
27226;DHT22;14732;51.074;3.788;2022-09-12T12:10:07;25.40;99.90
27226;DHT22;14732;51.074;3.788;2022-09-12T12:12:45;25.30;99.90
27226;DHT22;14732;51.074;3.788;2022-09-12T12:15:16;25.40;99.90
27226;DHT22;14732;51.074;3.788;2022-09-12T12:17:42;25.50;99.90
27226;DHT22;14732;51.074;3.788;2022-09-12T12:20:17;25.80;99.90
27226;DHT22;14732;51.074;3.788;2022-09-12T12:22:53;26.20;99.90
27226;DHT22;14732;51.074;3.788;2022-09-12T12:27:52;26.20;99.90
27226;DHT22;14732;51.074;3.788;2022-09-12T12:36:02;26.20;99.90
27226;DHT22;14732;51.074;3.788;2022-09-12T12:38:31;26.30;99.90
27226;DHT22;14732;51.074;3.788;2022-09-12T12:43:50;26.60;99.90
27226;DHT22;14732;51.074;3.788;2022-09-12T12:46:21;26.40;99.90
27226;DHT22;14732;51.074;3.788;2022-09-12T12:48:54;26.30;99.90
27226;DHT22;14732;51.074;3.788;2022-09-12T12:54:04;26.40;99.90
27226;DHT22;14732;51.074;3.788;2022-09-12T12:56:38;26.40;99.90
27226;DHT22;14732;51.074;3.788;2022-09-12T12:59:21;26.60;99.90
27226;DHT22;14732;51.074;3.788;2022-09-12T13:01:53;26.60;99.90
27226;DHT22;14732;51.074;3.788;2022-09-12T13:04:22;26.20;99.90
27226;DHT22;14732;51.074;3.788;2022-09-12T13:07:05;26.10;99.90
27226;DHT22;14732;51.074;3.788;2022-09-12T13:09:42;26.40;99.90
27226;DHT22;14732;51.074;3.788;2022-09-12T13:12:11;26.60;99.90
27226;DHT22;14732;51.074;3.788;2022-09-12T13:17:42;26.90;99.90
27226;DHT22;14732;51.074;3.788;2022-09-12T13:22:48;26.30;99.90
27226;DHT22;14732;51.074;3.788;2022-09-12T13:25:35;26.20;99.90
27226;DHT22;14732;51.074;3.788;2022-09-12T13:30:39;26.30;99.90
27226;DHT22;14732;51.074;3.788;2022-09-12T13:33:49;26.40;99.90
27226;DHT22;14732;51.074;3.788;2022-09-12T13:39:22;27.00;99.90
27226;DHT22;14732;51.074;3.788;2022-09-12T13:44:19;26.80;99.90
27226;DHT22;14732;51.074;3.788;2022-09-12T13:46:46;27.00;99.90
27226;DHT22;14732;51.074;3.788;2022-09-12T13:49:34;27.10;99.90
27226;DHT22;14732;51.074;3.788;2022-09-12T13:52:04;27.20;99.90
27226;DHT22;14732;51.074;3.788;2022-09-12T13:54:32;27.20;99.90
27226;DHT22;14732;51.074;3.788;2022-09-12T13:56:58;27.20;99.90
27226;DHT22;14732;51.074;3.788;2022-09-12T13:59:24;27.30;99.90
27226;DHT22;14732;51.074;3.788;2022-09-12T14:01:50;27.30;99.90
27226;DHT22;14732;51.074;3.788;2022-09-12T14:04:37;27.30;99.90
27226;DHT22;14732;51.074;3.788;2022-09-12T14:07:23;27.30;99.90
27226;DHT22;14732;51.074;3.788;2022-09-12T14:09:58;27.00;99.90
27226;DHT22;14732;51.074;3.788;2022-09-12T14:14:54;26.90;99.90
27226;DHT22;14732;51.074;3.788;2022-09-12T14:17:31;27.00;99.90
27226;DHT22;14732;51.074;3.788;2022-09-12T14:20:05;26.80;99.90
27226;DHT22;14732;51.074;3.788;2022-09-12T14:22:32;26.80;99.90
27226;DHT22;14732;51.074;3.788;2022-09-12T14:24:59;26.70;99.90
27226;DHT22;14732;51.074;3.788;2022-09-12T14:27:31;26.60;99.90
27226;DHT22;14732;51.074;3.788;2022-09-12T14:30:05;26.70;99.90
27226;DHT22;14732;51.074;3.788;2022-09-12T14:32:34;27.00;99.90
27226;DHT22;14732;51.074;3.788;2022-09-12T14:35:05;27.00;99.90
27226;DHT22;14732;51.074;3.788;2022-09-12T14:37:31;27.20;99.90
27226;DHT22;14732;51.074;3.788;2022-09-12T14:39:57;27.20;99.90
27226;DHT22;14732;51.074;3.788;2022-09-12T14:42:26;27.00;99.90
27226;DHT22;14732;51.074;3.788;2022-09-12T14:45:03;27.10;99.90
27226;DHT22;14732;51.074;3.788;2022-09-12T14:47:40;27.20;99.90
27226;DHT22;14732;51.074;3.788;2022-09-12T14:50:17;26.90;99.90
27226;DHT22;14732;51.074;3.788;2022-09-12T14:52:44;26.90;99.90
27226;DHT22;14732;51.074;3.788;2022-09-12T14:55:27;27.10;99.90
27226;DHT22;14732;51.074;3.788;2022-09-12T15:06:39;26.50;99.90
27226;DHT22;14732;51.074;3.788;2022-09-12T15:09:12;26.70;99.90
27226;DHT22;14732;51.074;3.788;2022-09-12T15:11:38;26.70;99.90
27226;DHT22;14732;51.074;3.788;2022-09-12T15:14:14;26.70;99.90
27226;DHT22;14732;51.074;3.788;2022-09-12T15:16:40;26.70;99.90
27226;DHT22;14732;51.074;3.788;2022-09-12T15:19:05;26.80;99.90
27226;DHT22;14732;51.074;3.788;2022-09-12T15:21:31;26.70;99.90
27226;DHT22;14732;51.074;3.788;2022-09-12T15:23:57;26.70;99.90
27226;DHT22;14732;51.074;3.788;2022-09-12T15:26:24;26.90;99.90
27226;DHT22;14732;51.074;3.788;2022-09-12T15:28:52;26.90;99.90
27226;DHT22;14732;51.074;3.788;2022-09-12T15:31:23;26.70;99.90
27226;DHT22;14732;51.074;3.788;2022-09-12T15:33:49;26.80;99.90
27226;DHT22;14732;51.074;3.788;2022-09-12T15:36:17;27.00;99.90
27226;DHT22;14732;51.074;3.788;2022-09-12T15:38:43;27.00;99.90
27226;DHT22;14732;51.074;3.788;2022-09-12T15:43:44;27.00;99.90
27226;DHT22;14732;51.074;3.788;2022-09-12T15:46:11;26.90;99.90
27226;DHT22;14732;51.074;3.788;2022-09-12T15:48:38;27.00;99.90
27226;DHT22;14732;51.074;3.788;2022-09-12T15:51:05;26.90;99.90
27226;DHT22;14732;51.074;3.788;2022-09-12T15:53:30;26.60;99.90
27226;DHT22;14732;51.074;3.788;2022-09-12T15:55:56;26.50;99.90
27226;DHT22;14732;51.074;3.788;2022-09-12T15:58:22;26.40;99.90
27226;DHT22;14732;51.074;3.788;2022-09-12T16:00:47;26.30;99.90
27226;DHT22;14732;51.074;3.788;2022-09-12T16:03:21;26.20;99.90
27226;DHT22;14732;51.074;3.788;2022-09-12T16:05:47;26.40;99.90
27226;DHT22;14732;51.074;3.788;2022-09-12T16:08:13;26.30;99.90
27226;DHT22;14732;51.074;3.788;2022-09-12T16:10:42;26.30;99.90
27226;DHT22;14732;51.074;3.788;2022-09-12T16:13:08;26.20;99.90
27226;DHT22;14732;51.074;3.788;2022-09-12T16:15:33;26.10;99.90
27226;DHT22;14732;51.074;3.788;2022-09-12T16:17:59;26.10;99.90
27226;DHT22;14732;51.074;3.788;2022-09-12T16:20:24;26.00;99.90
27226;DHT22;14732;51.074;3.788;2022-09-12T16:22:50;26.00;99.90
27226;DHT22;14732;51.074;3.788;2022-09-12T16:25:16;26.10;99.90
27226;DHT22;14732;51.074;3.788;2022-09-12T16:27:42;26.00;99.90
27226;DHT22;14732;51.074;3.788;2022-09-12T16:30:08;26.10;99.90
27226;DHT22;14732;51.074;3.788;2022-09-12T16:32:34;26.10;99.90
27226;DHT22;14732;51.074;3.788;2022-09-12T16:35:00;26.10;99.90
27226;DHT22;14732;51.074;3.788;2022-09-12T16:37:27;26.10;99.90
27226;DHT22;14732;51.074;3.788;2022-09-12T16:39:52;26.20;99.90
27226;DHT22;14732;51.074;3.788;2022-09-12T16:42:18;26.20;99.90
27226;DHT22;14732;51.074;3.788;2022-09-12T16:44:45;26.10;99.90
27226;DHT22;14732;51.074;3.788;2022-09-12T16:47:11;25.90;99.90
27226;DHT22;14732;51.074;3.788;2022-09-12T16:49:37;25.80;99.90
27226;DHT22;14732;51.074;3.788;2022-09-12T16:52:03;25.90;99.90
27226;DHT22;14732;51.074;3.788;2022-09-12T16:54:29;25.90;99.90
27226;DHT22;14732;51.074;3.788;2022-09-12T16:56:55;25.90;99.90
27226;DHT22;14732;51.074;3.788;2022-09-12T16:59:20;26.00;99.90
27226;DHT22;14732;51.074;3.788;2022-09-12T17:01:46;26.20;99.90
27226;DHT22;14732;51.074;3.788;2022-09-12T17:04:12;26.10;99.90
27226;DHT22;14732;51.074;3.788;2022-09-12T17:06:37;26.00;99.90
27226;DHT22;14732;51.074;3.788;2022-09-12T17:09:03;26.00;99.90
27226;DHT22;14732;51.074;3.788;2022-09-12T17:11:35;26.10;99.90
27226;DHT22;14732;51.074;3.788;2022-09-12T17:14:03;26.10;99.90
27226;DHT22;14732;51.074;3.788;2022-09-12T17:16:31;26.00;99.90
27226;DHT22;14732;51.074;3.788;2022-09-12T17:18:56;25.90;99.90
27226;DHT22;14732;51.074;3.788;2022-09-12T17:21:22;25.90;99.90
27226;DHT22;14732;51.074;3.788;2022-09-12T17:23:48;25.60;99.90
27226;DHT22;14732;51.074;3.788;2022-09-12T17:26:14;25.50;99.90
27226;DHT22;14732;51.074;3.788;2022-09-12T17:28:40;25.40;99.90
27226;DHT22;14732;51.074;3.788;2022-09-12T17:31:08;25.30;99.90
27226;DHT22;14732;51.074;3.788;2022-09-12T17:33:34;25.20;99.90
27226;DHT22;14732;51.074;3.788;2022-09-12T17:36:08;25.10;99.90
27226;DHT22;14732;51.074;3.788;2022-09-12T17:38:36;25.10;99.90
27226;DHT22;14732;51.074;3.788;2022-09-12T17:41:06;25.00;99.90
27226;DHT22;14732;51.074;3.788;2022-09-12T17:43:33;24.90;99.90
27226;DHT22;14732;51.074;3.788;2022-09-12T17:45:59;24.90;99.90
27226;DHT22;14732;51.074;3.788;2022-09-12T17:48:25;24.80;99.90
27226;DHT22;14732;51.074;3.788;2022-09-12T17:50:50;24.90;99.90
27226;DHT22;14732;51.074;3.788;2022-09-12T17:53:17;24.80;99.90
27226;DHT22;14732;51.074;3.788;2022-09-12T17:55:42;24.70;99.90
27226;DHT22;14732;51.074;3.788;2022-09-12T17:58:08;24.60;99.90
27226;DHT22;14732;51.074;3.788;2022-09-12T18:00:34;24.50;99.90
27226;DHT22;14732;51.074;3.788;2022-09-12T18:03:22;24.50;99.90
27226;DHT22;14732;51.074;3.788;2022-09-12T18:05:52;24.30;99.90
27226;DHT22;14732;51.074;3.788;2022-09-12T18:08:18;24.20;99.90
27226;DHT22;14732;51.074;3.788;2022-09-12T18:10:44;23.90;99.90
27226;DHT22;14732;51.074;3.788;2022-09-12T18:13:11;23.60;99.90
27226;DHT22;14732;51.074;3.788;2022-09-12T18:15:36;23.40;99.90
27226;DHT22;14732;51.074;3.788;2022-09-12T18:18:03;23.30;99.90
27226;DHT22;14732;51.074;3.788;2022-09-12T18:20:29;23.30;99.90
27226;DHT22;14732;51.074;3.788;2022-09-12T18:22:55;23.30;99.90
27226;DHT22;14732;51.074;3.788;2022-09-12T18:25:20;23.30;99.90
27226;DHT22;14732;51.074;3.788;2022-09-12T18:27:46;23.30;99.90
27226;DHT22;14732;51.074;3.788;2022-09-12T18:30:12;23.30;99.90
27226;DHT22;14732;51.074;3.788;2022-09-12T18:32:39;23.20;99.90